sensor_id;sensor_type;location;lat;lon;timestamp;pressure;altitude;pressure_sealevel;temperature;humidity
3434;BME280;1730;41.932;25.548;2024-02-26T00:01:27;100098.91;;;11.13;100.00
3434;BME280;1730;41.932;25.548;2024-02-26T00:03:53;100144.97;;;11.30;100.00
3434;BME280;1730;41.932;25.548;2024-02-26T00:06:20;100151.81;;;11.35;100.00
3434;BME280;1730;41.932;25.548;2024-02-26T00:08:46;100156.66;;;11.41;100.00
3434;BME280;1730;41.932;25.548;2024-02-26T00:11:11;100146.72;;;11.51;100.00
3434;BME280;1730;41.932;25.548;2024-02-26T00:13:37;100153.13;;;11.59;100.00
3434;BME280;1730;41.932;25.548;2024-02-26T00:16:03;100097.50;;;11.38;100.00
3434;BME280;1730;41.932;25.548;2024-02-26T00:18:29;99953.41;;;10.62;100.00
3434;BME280;1730;41.932;25.548;2024-02-26T00:20:54;100017.53;;;11.27;100.00
3434;BME280;1730;41.932;25.548;2024-02-26T00:23:20;99987.53;;;11.20;100.00
3434;BME280;1730;41.932;25.548;2024-02-26T00:25:46;99933.25;;;10.85;100.00
3434;BME280;1730;41.932;25.548;2024-02-26T00:28:11;99931.81;;;11.19;100.00
3434;BME280;1730;41.932;25.548;2024-02-26T00:30:38;99619.50;;;9.32;100.00
3434;BME280;1730;41.932;25.548;2024-02-26T00:33:04;99930.56;;;10.85;100.00
3434;BME280;1730;41.932;25.548;2024-02-26T00:35:29;99556.00;;;8.82;100.00
3434;BME280;1730;41.932;25.548;2024-02-26T00:37:55;99911.69;;;11.14;100.00
3434;BME280;1730;41.932;25.548;2024-02-26T00:40:20;99908.28;;;10.73;100.00
3434;BME280;1730;41.932;25.548;2024-02-26T00:42:46;99891.19;;;10.54;100.00
3434;BME280;1730;41.932;25.548;2024-02-26T00:45:13;99772.87;;;9.72;100.00
3434;BME280;1730;41.932;25.548;2024-02-26T00:47:39;99970.41;;;10.53;100.00
3434;BME280;1730;41.932;25.548;2024-02-26T00:50:07;99973.69;;;10.75;100.00
3434;BME280;1730;41.932;25.548;2024-02-26T00:52:33;100014.50;;;10.92;100.00
3434;BME280;1730;41.932;25.548;2024-02-26T00:54:59;99948.59;;;10.75;100.00
3434;BME280;1730;41.932;25.548;2024-02-26T00:57:25;99798.06;;;10.11;100.00
3434;BME280;1730;41.932;25.548;2024-02-26T00:59:50;99796.22;;;10.12;100.00
3434;BME280;1730;41.932;25.548;2024-02-26T01:02:16;99909.81;;;10.85;100.00
3434;BME280;1730;41.932;25.548;2024-02-26T01:04:41;99730.94;;;9.79;100.00
3434;BME280;1730;41.932;25.548;2024-02-26T01:07:07;99907.13;;;10.85;100.00
3434;BME280;1730;41.932;25.548;2024-02-26T01:09:32;99524.25;;;8.76;100.00
3434;BME280;1730;41.932;25.548;2024-02-26T01:11:58;99866.53;;;10.87;100.00
3434;BME280;1730;41.932;25.548;2024-02-26T01:14:24;99869.22;;;10.77;100.00
3434;BME280;1730;41.932;25.548;2024-02-26T01:16:49;99845.06;;;10.66;100.00
3434;BME280;1730;41.932;25.548;2024-02-26T01:19:15;99398.97;;;7.95;100.00
3434;BME280;1730;41.932;25.548;2024-02-26T01:21:40;99904.16;;;10.79;100.00
3434;BME280;1730;41.932;25.548;2024-02-26T01:24:06;99920.34;;;10.79;100.00
3434;BME280;1730;41.932;25.548;2024-02-26T01:26:32;99952.31;;;10.83;100.00
3434;BME280;1730;41.932;25.548;2024-02-26T01:28:58;99528.91;;;8.64;100.00
3434;BME280;1730;41.932;25.548;2024-02-26T01:31:23;99597.00;;;8.84;100.00
3434;BME280;1730;41.932;25.548;2024-02-26T01:33:50;99465.22;;;7.85;100.00
3434;BME280;1730;41.932;25.548;2024-02-26T01:36:15;99935.84;;;10.18;100.00
3434;BME280;1730;41.932;25.548;2024-02-26T01:38:42;99825.69;;;9.24;100.00
3434;BME280;1730;41.932;25.548;2024-02-26T01:41:08;99948.72;;;9.93;100.00
3434;BME280;1730;41.932;25.548;2024-02-26T01:43:33;100010.28;;;10.19;100.00
3434;BME280;1730;41.932;25.548;2024-02-26T01:45:59;99928.62;;;9.67;100.00
3434;BME280;1730;41.932;25.548;2024-02-26T01:48:25;99786.22;;;8.83;100.00
3434;BME280;1730;41.932;25.548;2024-02-26T01:50:51;100028.47;;;10.06;100.00
3434;BME280;1730;41.932;25.548;2024-02-26T01:53:17;99545.16;;;7.29;100.00
3434;BME280;1730;41.932;25.548;2024-02-26T01:55:44;99642.13;;;7.88;100.00
3434;BME280;1730;41.932;25.548;2024-02-26T01:58:10;100022.91;;;10.18;100.00
3434;BME280;1730;41.932;25.548;2024-02-26T02:00:36;99865.97;;;9.14;100.00
3434;BME280;1730;41.932;25.548;2024-02-26T02:03:03;99681.81;;;8.26;100.00
3434;BME280;1730;41.932;25.548;2024-02-26T02:05:30;99993.31;;;10.07;100.00
3434;BME280;1730;41.932;25.548;2024-02-26T02:07:56;99692.00;;;8.43;100.00
3434;BME280;1730;41.932;25.548;2024-02-26T02:10:22;99999.16;;;10.12;100.00
3434;BME280;1730;41.932;25.548;2024-02-26T02:12:51;100025.81;;;10.36;100.00
3434;BME280;1730;41.932;25.548;2024-02-26T02:15:16;100015.75;;;10.38;100.00
3434;BME280;1730;41.932;25.548;2024-02-26T02:17:42;100039.56;;;10.33;100.00
3434;BME280;1730;41.932;25.548;2024-02-26T02:20:09;100010.41;;;10.48;100.00
3434;BME280;1730;41.932;25.548;2024-02-26T02:22:34;99832.31;;;9.50;100.00
3434;BME280;1730;41.932;25.548;2024-02-26T02:25:00;99771.19;;;9.31;100.00
3434;BME280;1730;41.932;25.548;2024-02-26T02:27:27;99945.41;;;10.51;100.00
3434;BME280;1730;41.932;25.548;2024-02-26T02:29:52;99580.16;;;8.42;100.00
3434;BME280;1730;41.932;25.548;2024-02-26T02:32:19;99857.19;;;10.03;100.00
3434;BME280;1730;41.932;25.548;2024-02-26T02:34:44;99628.37;;;8.74;100.00
3434;BME280;1730;41.932;25.548;2024-02-26T02:37:11;99736.41;;;9.49;100.00
3434;BME280;1730;41.932;25.548;2024-02-26T02:39:36;99617.22;;;8.78;100.00
3434;BME280;1730;41.932;25.548;2024-02-26T02:42:02;99845.81;;;10.09;100.00
3434;BME280;1730;41.932;25.548;2024-02-26T02:44:27;99829.09;;;10.06;100.00
3434;BME280;1730;41.932;25.548;2024-02-26T02:46:53;99782.06;;;9.70;100.00
3434;BME280;1730;41.932;25.548;2024-02-26T02:49:18;99900.81;;;10.37;100.00
3434;BME280;1730;41.932;25.548;2024-02-26T02:51:44;99776.09;;;9.57;100.00
3434;BME280;1730;41.932;25.548;2024-02-26T02:54:10;99652.34;;;8.86;100.00
3434;BME280;1730;41.932;25.548;2024-02-26T02:56:35;99747.84;;;9.41;100.00
3434;BME280;1730;41.932;25.548;2024-02-26T02:59:01;99930.25;;;10.59;100.00
3434;BME280;1730;41.932;25.548;2024-02-26T03:01:27;99765.50;;;9.74;100.00
3434;BME280;1730;41.932;25.548;2024-02-26T03:03:53;99711.16;;;9.40;100.00
3434;BME280;1730;41.932;25.548;2024-02-26T03:06:18;99822.78;;;10.45;100.00
3434;BME280;1730;41.932;25.548;2024-02-26T03:08:46;99397.50;;;7.51;100.00
3434;BME280;1730;41.932;25.548;2024-02-26T03:11:15;99758.19;;;9.86;100.00
3434;BME280;1730;41.932;25.548;2024-02-26T03:13:41;99911.66;;;10.85;100.00
3434;BME280;1730;41.932;25.548;2024-02-26T03:16:06;99801.09;;;10.18;100.00
3434;BME280;1730;41.932;25.548;2024-02-26T03:18:32;99832.59;;;10.46;100.00
3434;BME280;1730;41.932;25.548;2024-02-26T03:20:58;99851.91;;;10.61;100.00
3434;BME280;1730;41.932;25.548;2024-02-26T03:23:23;99865.53;;;10.59;100.00
3434;BME280;1730;41.932;25.548;2024-02-26T03:25:49;99911.25;;;10.70;100.00
3434;BME280;1730;41.932;25.548;2024-02-26T03:28:14;99705.16;;;9.77;100.00
3434;BME280;1730;41.932;25.548;2024-02-26T03:30:39;99575.28;;;9.06;100.00
3434;BME280;1730;41.932;25.548;2024-02-26T03:33:05;99514.47;;;8.65;100.00
3434;BME280;1730;41.932;25.548;2024-02-26T03:35:30;99887.69;;;10.92;100.00
3434;BME280;1730;41.932;25.548;2024-02-26T03:37:56;99597.22;;;9.01;100.00
3434;BME280;1730;41.932;25.548;2024-02-26T03:40:21;99801.56;;;9.92;100.00
3434;BME280;1730;41.932;25.548;2024-02-26T03:42:47;99878.47;;;10.65;100.00
3434;BME280;1730;41.932;25.548;2024-02-26T03:45:12;99397.50;;;7.72;100.00
3434;BME280;1730;41.932;25.548;2024-02-26T03:47:38;99501.47;;;8.30;100.00
3434;BME280;1730;41.932;25.548;2024-02-26T03:50:07;99665.75;;;9.07;100.00
3434;BME280;1730;41.932;25.548;2024-02-26T03:52:33;99751.97;;;9.45;100.00
3434;BME280;1730;41.932;25.548;2024-02-26T03:54:59;99946.22;;;10.32;100.00
3434;BME280;1730;41.932;25.548;2024-02-26T03:57:25;99912.75;;;10.34;100.00
3434;BME280;1730;41.932;25.548;2024-02-26T03:59:50;99787.91;;;9.75;100.00
3434;BME280;1730;41.932;25.548;2024-02-26T04:02:16;99681.25;;;9.24;100.00
3434;BME280;1730;41.932;25.548;2024-02-26T04:04:42;99892.63;;;10.38;100.00
3434;BME280;1730;41.932;25.548;2024-02-26T04:07:07;99753.44;;;9.59;100.00
3434;BME280;1730;41.932;25.548;2024-02-26T04:09:34;99526.72;;;8.18;100.00
3434;BME280;1730;41.932;25.548;2024-02-26T04:11:59;99900.56;;;10.50;100.00
3434;BME280;1730;41.932;25.548;2024-02-26T04:14:25;99628.16;;;8.86;100.00
3434;BME280;1730;41.932;25.548;2024-02-26T04:16:50;99921.03;;;10.62;100.00
3434;BME280;1730;41.932;25.548;2024-02-26T04:19:17;99907.13;;;10.57;100.00
3434;BME280;1730;41.932;25.548;2024-02-26T04:21:44;99898.16;;;10.47;100.00
3434;BME280;1730;41.932;25.548;2024-02-26T04:24:09;99736.81;;;9.44;100.00
3434;BME280;1730;41.932;25.548;2024-02-26T04:26:34;99902.63;;;10.17;100.00
3434;BME280;1730;41.932;25.548;2024-02-26T04:29:00;99930.91;;;10.02;100.00
3434;BME280;1730;41.932;25.548;2024-02-26T04:31:26;99666.88;;;8.12;100.00
3434;BME280;1730;41.932;25.548;2024-02-26T04:33:52;99972.66;;;9.66;100.00
3434;BME280;1730;41.932;25.548;2024-02-26T04:36:17;99833.81;;;8.71;100.00
3434;BME280;1730;41.932;25.548;2024-02-26T04:38:43;100071.00;;;10.02;100.00
3434;BME280;1730;41.932;25.548;2024-02-26T04:41:09;100079.03;;;10.13;100.00
3434;BME280;1730;41.932;25.548;2024-02-26T04:43:35;100076.97;;;10.06;100.00
3434;BME280;1730;41.932;25.548;2024-02-26T04:46:09;100012.88;;;9.58;100.00
3434;BME280;1730;41.932;25.548;2024-02-26T04:48:35;99697.00;;;7.95;100.00
3434;BME280;1730;41.932;25.548;2024-02-26T04:51:01;99897.16;;;9.17;100.00
3434;BME280;1730;41.932;25.548;2024-02-26T04:53:27;99774.66;;;8.19;100.00
3434;BME280;1730;41.932;25.548;2024-02-26T04:55:53;100076.44;;;10.32;100.00
3434;BME280;1730;41.932;25.548;2024-02-26T04:58:18;99931.25;;;9.58;100.00
3434;BME280;1730;41.932;25.548;2024-02-26T05:00:43;100118.31;;;10.57;100.00
3434;BME280;1730;41.932;25.548;2024-02-26T05:03:09;99791.19;;;9.08;100.00
3434;BME280;1730;41.932;25.548;2024-02-26T05:05:43;99758.75;;;9.10;100.00
3434;BME280;1730;41.932;25.548;2024-02-26T05:08:08;100001.12;;;10.80;100.00
3434;BME280;1730;41.932;25.548;2024-02-26T05:10:34;99998.72;;;10.87;100.00
3434;BME280;1730;41.932;25.548;2024-02-26T05:13:05;99986.91;;;10.69;100.00
3434;BME280;1730;41.932;25.548;2024-02-26T05:15:31;99983.41;;;10.88;100.00
3434;BME280;1730;41.932;25.548;2024-02-26T05:17:57;100003.81;;;10.80;100.00
3434;BME280;1730;41.932;25.548;2024-02-26T05:20:23;100000.88;;;11.12;100.00
3434;BME280;1730;41.932;25.548;2024-02-26T05:22:48;99823.41;;;10.49;100.00
3434;BME280;1730;41.932;25.548;2024-02-26T05:25:15;99766.06;;;10.47;100.00
3434;BME280;1730;41.932;25.548;2024-02-26T05:27:41;99868.56;;;11.41;100.00
3434;BME280;1730;41.932;25.548;2024-02-26T05:30:07;99845.00;;;11.34;100.00
3434;BME280;1730;41.932;25.548;2024-02-26T05:32:33;99837.09;;;11.22;100.00
3434;BME280;1730;41.932;25.548;2024-02-26T05:34:58;99671.00;;;10.35;100.00
3434;BME280;1730;41.932;25.548;2024-02-26T05:37:24;99508.63;;;9.38;100.00
3434;BME280;1730;41.932;25.548;2024-02-26T05:39:49;99614.75;;;9.65;100.00
3434;BME280;1730;41.932;25.548;2024-02-26T05:42:15;99829.75;;;10.86;100.00
3434;BME280;1730;41.932;25.548;2024-02-26T05:44:40;99447.13;;;8.67;100.00
3434;BME280;1730;41.932;25.548;2024-02-26T05:47:06;99830.31;;;10.99;100.00
3434;BME280;1730;41.932;25.548;2024-02-26T05:49:31;99466.69;;;8.88;100.00
3434;BME280;1730;41.932;25.548;2024-02-26T05:51:59;99679.81;;;10.08;100.00
3434;BME280;1730;41.932;25.548;2024-02-26T05:54:24;99834.72;;;11.00;100.00
3434;BME280;1730;41.932;25.548;2024-02-26T05:56:50;99732.44;;;10.22;100.00
3434;BME280;1730;41.932;25.548;2024-02-26T05:59:15;99859.13;;;10.99;100.00
3434;BME280;1730;41.932;25.548;2024-02-26T06:01:41;99607.91;;;9.80;100.00
3434;BME280;1730;41.932;25.548;2024-02-26T06:04:06;99832.00;;;11.00;100.00
3434;BME280;1730;41.932;25.548;2024-02-26T06:06:32;99467.97;;;8.93;100.00
3434;BME280;1730;41.932;25.548;2024-02-26T06:08:57;99550.84;;;9.47;100.00
3434;BME280;1730;41.932;25.548;2024-02-26T06:11:23;99838.09;;;11.12;100.00
3434;BME280;1730;41.932;25.548;2024-02-26T06:13:48;99877.16;;;11.17;100.00
3434;BME280;1730;41.932;25.548;2024-02-26T06:16:14;99880.94;;;11.44;100.00
3434;BME280;1730;41.932;25.548;2024-02-26T06:18:39;99604.63;;;10.24;100.00
3434;BME280;1730;41.932;25.548;2024-02-26T06:21:09;99728.44;;;11.11;100.00
3434;BME280;1730;41.932;25.548;2024-02-26T06:23:34;99767.97;;;11.39;100.00
3434;BME280;1730;41.932;25.548;2024-02-26T06:26:00;99756.09;;;11.22;100.00
3434;BME280;1730;41.932;25.548;2024-02-26T06:28:25;99505.59;;;9.80;100.00
3434;BME280;1730;41.932;25.548;2024-02-26T06:30:51;99614.59;;;10.70;100.00
3434;BME280;1730;41.932;25.548;2024-02-26T06:33:18;99485.09;;;10.16;100.00
3434;BME280;1730;41.932;25.548;2024-02-26T06:35:43;99729.41;;;12.01;100.00
3434;BME280;1730;41.932;25.548;2024-02-26T06:38:09;99668.16;;;11.47;100.00
3434;BME280;1730;41.932;25.548;2024-02-26T06:40:36;99394.06;;;9.82;100.00
3434;BME280;1730;41.932;25.548;2024-02-26T06:43:02;99750.59;;;11.79;100.00
3434;BME280;1730;41.932;25.548;2024-02-26T06:45:27;99606.78;;;11.22;100.00
3434;BME280;1730;41.932;25.548;2024-02-26T06:47:53;99642.63;;;11.59;100.00
3434;BME280;1730;41.932;25.548;2024-02-26T06:50:18;99585.62;;;11.45;100.00
3434;BME280;1730;41.932;25.548;2024-02-26T06:52:44;99510.88;;;11.27;100.00
3434;BME280;1730;41.932;25.548;2024-02-26T06:55:10;99655.69;;;12.60;100.00
3434;BME280;1730;41.932;25.548;2024-02-26T06:57:36;99598.59;;;12.63;100.00
3434;BME280;1730;41.932;25.548;2024-02-26T07:00:02;99524.62;;;12.21;100.00
3434;BME280;1730;41.932;25.548;2024-02-26T07:02:29;99206.16;;;10.65;100.00
3434;BME280;1730;41.932;25.548;2024-02-26T07:04:54;99546.56;;;13.20;100.00
3434;BME280;1730;41.932;25.548;2024-02-26T07:07:21;99366.06;;;12.54;100.00
3434;BME280;1730;41.932;25.548;2024-02-26T07:09:49;99291.84;;;12.48;100.00
3434;BME280;1730;41.932;25.548;2024-02-26T07:12:15;99449.59;;;13.72;100.00
3434;BME280;1730;41.932;25.548;2024-02-26T07:14:41;99392.69;;;13.72;100.00
3434;BME280;1730;41.932;25.548;2024-02-26T07:17:07;99343.47;;;13.91;100.00
3434;BME280;1730;41.932;25.548;2024-02-26T07:19:34;98987.75;;;11.88;100.00
3434;BME280;1730;41.932;25.548;2024-02-26T07:21:59;99095.97;;;12.02;100.00
3434;BME280;1730;41.932;25.548;2024-02-26T07:24:27;99297.69;;;14.04;100.00
3434;BME280;1730;41.932;25.548;2024-02-26T07:26:53;99080.47;;;12.84;100.00
3434;BME280;1730;41.932;25.548;2024-02-26T07:29:21;99287.25;;;14.24;100.00
3434;BME280;1730;41.932;25.548;2024-02-26T07:31:47;99291.13;;;14.29;100.00
3434;BME280;1730;41.932;25.548;2024-02-26T07:34:12;99285.69;;;13.98;100.00
3434;BME280;1730;41.932;25.548;2024-02-26T07:36:38;99310.16;;;14.21;100.00
3434;BME280;1730;41.932;25.548;2024-02-26T07:39:04;99331.13;;;14.27;100.00
3434;BME280;1730;41.932;25.548;2024-02-26T07:41:29;99349.66;;;14.16;100.00
3434;BME280;1730;41.932;25.548;2024-02-26T07:43:55;99361.53;;;14.15;100.00
3434;BME280;1730;41.932;25.548;2024-02-26T07:46:20;99384.41;;;14.59;100.00
3434;BME280;1730;41.932;25.548;2024-02-26T07:48:49;99358.66;;;14.55;100.00
3434;BME280;1730;41.932;25.548;2024-02-26T07:51:15;99211.03;;;13.88;100.00
3434;BME280;1730;41.932;25.548;2024-02-26T07:53:40;99327.91;;;14.85;100.00
3434;BME280;1730;41.932;25.548;2024-02-26T07:56:06;99280.66;;;14.95;100.00
3434;BME280;1730;41.932;25.548;2024-02-26T07:58:32;99245.09;;;15.04;100.00
3434;BME280;1730;41.932;25.548;2024-02-26T08:00:58;99187.88;;;14.91;100.00
3434;BME280;1730;41.932;25.548;2024-02-26T08:03:24;99172.44;;;15.21;100.00
3434;BME280;1730;41.932;25.548;2024-02-26T08:05:51;99117.81;;;15.30;100.00
3434;BME280;1730;41.932;25.548;2024-02-26T08:08:16;98993.63;;;14.74;100.00
3434;BME280;1730;41.932;25.548;2024-02-26T08:10:42;99075.38;;;15.15;100.00
3434;BME280;1730;41.932;25.548;2024-02-26T08:13:08;99078.87;;;14.94;100.00
3434;BME280;1730;41.932;25.548;2024-02-26T08:15:35;99085.25;;;15.01;100.00
3434;BME280;1730;41.932;25.548;2024-02-26T08:18:03;99071.19;;;14.98;100.00
3434;BME280;1730;41.932;25.548;2024-02-26T08:20:29;99073.25;;;15.10;100.00
3434;BME280;1730;41.932;25.548;2024-02-26T08:22:55;98931.63;;;14.56;100.00
3434;BME280;1730;41.932;25.548;2024-02-26T08:25:21;98950.28;;;14.80;100.00
3434;BME280;1730;41.932;25.548;2024-02-26T08:27:47;99020.66;;;15.32;100.00
3434;BME280;1730;41.932;25.548;2024-02-26T08:30:16;99012.00;;;15.44;100.00
3434;BME280;1730;41.932;25.548;2024-02-26T08:32:43;99037.41;;;15.51;100.00
3434;BME280;1730;41.932;25.548;2024-02-26T08:35:09;99021.47;;;15.48;100.00
3434;BME280;1730;41.932;25.548;2024-02-26T08:37:35;98641.03;;;12.93;100.00
3434;BME280;1730;41.932;25.548;2024-02-26T08:40:00;98926.53;;;15.04;100.00
3434;BME280;1730;41.932;25.548;2024-02-26T08:42:26;99025.81;;;15.63;100.00
3434;BME280;1730;41.932;25.548;2024-02-26T08:44:51;98748.63;;;14.08;100.00
3434;BME280;1730;41.932;25.548;2024-02-26T08:47:17;98904.28;;;15.15;100.00
3434;BME280;1730;41.932;25.548;2024-02-26T08:49:44;98991.47;;;15.56;100.00
3434;BME280;1730;41.932;25.548;2024-02-26T08:52:10;98839.44;;;14.48;100.00
3434;BME280;1730;41.932;25.548;2024-02-26T08:54:35;98984.34;;;15.55;100.00
3434;BME280;1730;41.932;25.548;2024-02-26T08:57:01;98766.19;;;14.48;100.00
3434;BME280;1730;41.932;25.548;2024-02-26T08:59:26;98881.37;;;14.81;100.00
3434;BME280;1730;41.932;25.548;2024-02-26T09:01:52;98956.16;;;15.41;100.00
3434;BME280;1730;41.932;25.548;2024-02-26T09:04:17;98966.53;;;15.73;100.00
3434;BME280;1730;41.932;25.548;2024-02-26T09:06:43;98942.31;;;16.06;100.00
3434;BME280;1730;41.932;25.548;2024-02-26T09:09:09;98921.88;;;16.17;100.00
3434;BME280;1730;41.932;25.548;2024-02-26T09:11:36;98914.22;;;15.93;100.00
3434;BME280;1730;41.932;25.548;2024-02-26T09:14:01;98923.34;;;15.85;100.00
3434;BME280;1730;41.932;25.548;2024-02-26T09:16:27;98784.75;;;15.08;100.00
3434;BME280;1730;41.932;25.548;2024-02-26T09:18:53;98891.78;;;15.91;100.00
3434;BME280;1730;41.932;25.548;2024-02-26T09:21:18;98910.06;;;15.75;100.00
3434;BME280;1730;41.932;25.548;2024-02-26T09:23:49;98502.22;;;13.71;100.00
3434;BME280;1730;41.932;25.548;2024-02-26T09:26:15;98912.78;;;16.03;100.00
3434;BME280;1730;41.932;25.548;2024-02-26T09:28:40;98912.38;;;16.00;100.00
3434;BME280;1730;41.932;25.548;2024-02-26T09:31:06;98905.75;;;16.15;100.00
3434;BME280;1730;41.932;25.548;2024-02-26T09:33:32;98838.25;;;15.91;100.00
3434;BME280;1730;41.932;25.548;2024-02-26T09:35:58;98910.91;;;16.04;100.00
3434;BME280;1730;41.932;25.548;2024-02-26T09:38:23;98939.63;;;16.41;100.00
3434;BME280;1730;41.932;25.548;2024-02-26T09:40:49;98737.50;;;15.37;100.00
3434;BME280;1730;41.932;25.548;2024-02-26T09:43:17;98835.13;;;16.42;100.00
3434;BME280;1730;41.932;25.548;2024-02-26T09:45:49;98883.94;;;16.91;100.00
3434;BME280;1730;41.932;25.548;2024-02-26T09:48:16;98736.94;;;15.76;100.00
3434;BME280;1730;41.932;25.548;2024-02-26T09:50:43;98816.34;;;15.99;100.00
3434;BME280;1730;41.932;25.548;2024-02-26T09:53:10;98742.00;;;15.86;100.00
3434;BME280;1730;41.932;25.548;2024-02-26T09:55:36;98743.87;;;15.78;100.00
3434;BME280;1730;41.932;25.548;2024-02-26T09:58:04;98575.97;;;14.92;100.00
3434;BME280;1730;41.932;25.548;2024-02-26T10:00:31;98871.72;;;16.74;100.00
3434;BME280;1730;41.932;25.548;2024-02-26T10:03:03;98722.31;;;16.38;100.00
3434;BME280;1730;41.932;25.548;2024-02-26T10:05:30;98819.44;;;17.18;100.00
3434;BME280;1730;41.932;25.548;2024-02-26T10:07:57;98813.50;;;16.75;100.00
3434;BME280;1730;41.932;25.548;2024-02-26T10:10:23;98734.66;;;16.47;100.00
3434;BME280;1730;41.932;25.548;2024-02-26T10:12:49;98724.44;;;16.55;100.00
3434;BME280;1730;41.932;25.548;2024-02-26T10:15:15;98676.50;;;16.67;100.00
3434;BME280;1730;41.932;25.548;2024-02-26T10:17:41;98677.78;;;16.78;100.00
3434;BME280;1730;41.932;25.548;2024-02-26T10:20:17;98787.75;;;17.56;100.00
3434;BME280;1730;41.932;25.548;2024-02-26T10:22:48;98782.72;;;17.07;100.00
3434;BME280;1730;41.932;25.548;2024-02-26T10:25:14;98787.38;;;17.06;100.00
3434;BME280;1730;41.932;25.548;2024-02-26T10:27:41;98605.91;;;16.46;100.00
3434;BME280;1730;41.932;25.548;2024-02-26T10:30:18;98680.47;;;17.24;100.00
3434;BME280;1730;41.932;25.548;2024-02-26T10:32:50;98765.75;;;17.44;100.00
3434;BME280;1730;41.932;25.548;2024-02-26T10:35:19;98779.19;;;17.13;100.00
3434;BME280;1730;41.932;25.548;2024-02-26T10:37:48;98747.53;;;17.12;100.00
3434;BME280;1730;41.932;25.548;2024-02-26T10:40:14;98758.22;;;17.13;100.00
3434;BME280;1730;41.932;25.548;2024-02-26T10:42:41;98627.06;;;16.38;100.00
3434;BME280;1730;41.932;25.548;2024-02-26T10:45:08;98638.81;;;16.45;100.00
3434;BME280;1730;41.932;25.548;2024-02-26T10:47:37;98748.38;;;17.32;100.00
3434;BME280;1730;41.932;25.548;2024-02-26T10:50:04;98701.47;;;16.97;100.00
3434;BME280;1730;41.932;25.548;2024-02-26T10:52:32;98396.44;;;15.15;100.00
3434;BME280;1730;41.932;25.548;2024-02-26T10:55:03;98734.56;;;17.14;100.00
3434;BME280;1730;41.932;25.548;2024-02-26T10:57:39;98744.41;;;17.08;100.00
3434;BME280;1730;41.932;25.548;2024-02-26T11:00:05;98746.47;;;17.26;100.00
3434;BME280;1730;41.932;25.548;2024-02-26T11:02:36;98708.56;;;17.11;100.00
3434;BME280;1730;41.932;25.548;2024-02-26T11:05:03;98721.47;;;17.69;100.00
3434;BME280;1730;41.932;25.548;2024-02-26T11:07:31;98717.44;;;17.84;100.00
3434;BME280;1730;41.932;25.548;2024-02-26T11:09:59;98715.22;;;18.13;100.00
3434;BME280;1730;41.932;25.548;2024-02-26T11:12:27;98726.13;;;18.13;100.00
3434;BME280;1730;41.932;25.548;2024-02-26T11:14:55;98703.31;;;18.00;100.00
3434;BME280;1730;41.932;25.548;2024-02-26T11:17:27;98706.81;;;17.50;100.00
3434;BME280;1730;41.932;25.548;2024-02-26T11:19:59;98708.94;;;17.41;100.00
3434;BME280;1730;41.932;25.548;2024-02-26T11:22:26;98700.03;;;17.85;100.00
3434;BME280;1730;41.932;25.548;2024-02-26T11:24:56;98711.38;;;17.76;100.00
3434;BME280;1730;41.932;25.548;2024-02-26T11:27:31;98685.81;;;18.15;100.00
3434;BME280;1730;41.932;25.548;2024-02-26T11:30:00;98586.97;;;17.24;100.00
3434;BME280;1730;41.932;25.548;2024-02-26T11:32:27;98687.56;;;18.40;100.00
3434;BME280;1730;41.932;25.548;2024-02-26T11:34:56;98571.16;;;17.45;100.00
3434;BME280;1730;41.932;25.548;2024-02-26T11:37:22;98669.09;;;18.36;100.00
3434;BME280;1730;41.932;25.548;2024-02-26T11:39:48;98669.19;;;17.78;100.00
3434;BME280;1730;41.932;25.548;2024-02-26T11:42:16;98660.81;;;17.80;100.00
3434;BME280;1730;41.932;25.548;2024-02-26T11:44:42;98656.66;;;18.46;100.00
3434;BME280;1730;41.932;25.548;2024-02-26T11:47:11;98671.53;;;18.82;100.00
3434;BME280;1730;41.932;25.548;2024-02-26T11:49:37;98654.91;;;18.83;100.00
3434;BME280;1730;41.932;25.548;2024-02-26T11:52:06;98348.44;;;16.90;100.00
3434;BME280;1730;41.932;25.548;2024-02-26T11:54:52;98581.94;;;18.34;100.00
3434;BME280;1730;41.932;25.548;2024-02-26T12:00:00;98440.19;;;17.72;100.00
3434;BME280;1730;41.932;25.548;2024-02-26T12:02:51;98646.03;;;18.88;100.00
3434;BME280;1730;41.932;25.548;2024-02-26T12:05:23;98648.66;;;18.76;100.00
3434;BME280;1730;41.932;25.548;2024-02-26T12:07:54;98643.87;;;18.72;100.00
3434;BME280;1730;41.932;25.548;2024-02-26T12:10:25;98625.12;;;18.19;100.00
3434;BME280;1730;41.932;25.548;2024-02-26T12:12:59;98604.53;;;18.48;100.00
3434;BME280;1730;41.932;25.548;2024-02-26T12:15:33;98624.41;;;18.86;100.00
3434;BME280;1730;41.932;25.548;2024-02-26T12:18:02;98643.16;;;19.01;100.00
3434;BME280;1730;41.932;25.548;2024-02-26T12:20:28;98630.44;;;18.70;100.00
3434;BME280;1730;41.932;25.548;2024-02-26T12:22:57;98379.34;;;16.71;100.00
3434;BME280;1730;41.932;25.548;2024-02-26T12:25:28;98625.41;;;18.67;100.00
3434;BME280;1730;41.932;25.548;2024-02-26T12:27:55;98630.00;;;18.91;100.00
3434;BME280;1730;41.932;25.548;2024-02-26T12:30:21;98575.97;;;17.94;100.00
3434;BME280;1730;41.932;25.548;2024-02-26T12:32:55;98641.25;;;18.52;100.00
3434;BME280;1730;41.932;25.548;2024-02-26T12:35:23;98640.03;;;18.17;100.00
3434;BME280;1730;41.932;25.548;2024-02-26T12:37:49;98638.41;;;17.65;100.00
3434;BME280;1730;41.932;25.548;2024-02-26T12:40:17;98643.03;;;17.64;100.00
3434;BME280;1730;41.932;25.548;2024-02-26T12:42:43;98534.28;;;16.85;100.00
3434;BME280;1730;41.932;25.548;2024-02-26T12:45:10;98645.50;;;17.79;100.00
3434;BME280;1730;41.932;25.548;2024-02-26T12:50:02;98646.03;;;18.32;100.00
3434;BME280;1730;41.932;25.548;2024-02-26T12:52:33;98648.91;;;17.68;100.00
3434;BME280;1730;41.932;25.548;2024-02-26T12:55:01;98645.31;;;17.74;100.00
3434;BME280;1730;41.932;25.548;2024-02-26T12:57:31;98626.06;;;17.62;100.00
3434;BME280;1730;41.932;25.548;2024-02-26T13:00:01;98543.38;;;17.24;100.00
3434;BME280;1730;41.932;25.548;2024-02-26T13:02:27;98528.66;;;17.31;100.00
3434;BME280;1730;41.932;25.548;2024-02-26T13:04:54;98623.59;;;17.92;100.00